createdAt,value
2019-05-14T00:01:46.194Z,5.11
2019-05-14T00:04:14.590Z,5.05
2019-05-14T00:06:42.777Z,4.99
2019-05-14T00:09:12.171Z,5.04
2019-05-14T00:11:42.134Z,4.94
2019-05-14T00:14:11.619Z,4.87
2019-05-14T00:16:42.317Z,4.95
2019-05-14T00:19:11.171Z,4.90
2019-05-14T00:21:42.116Z,4.80
2019-05-14T00:24:11.330Z,4.73
2019-05-14T00:26:42.316Z,4.73
2019-05-14T00:29:11.368Z,4.80
2019-05-14T00:31:42.170Z,4.76
2019-05-14T00:34:11.223Z,4.72
2019-05-14T00:36:41.637Z,4.62
2019-05-14T00:39:11.268Z,4.64
2019-05-14T00:41:41.770Z,4.60
2019-05-14T00:44:09.947Z,4.63
2019-05-14T00:46:38.289Z,4.59
2019-05-14T00:49:06.869Z,4.58
2019-05-14T00:51:35.167Z,4.55
2019-05-14T00:54:03.328Z,4.50
2019-05-14T00:56:32.214Z,4.39
2019-05-14T00:59:01.414Z,4.35
2019-05-14T01:01:31.642Z,4.19
2019-05-14T01:04:01.262Z,4.03
2019-05-14T01:06:31.481Z,3.96
2019-05-14T01:09:01.367Z,3.88
2019-05-14T01:11:31.482Z,3.80
2019-05-14T01:14:01.763Z,3.81
2019-05-14T01:16:31.830Z,3.90
2019-05-14T01:19:02.062Z,3.94
2019-05-14T01:21:31.159Z,4.00
2019-05-14T01:24:01.869Z,3.95
2019-05-14T01:26:31.009Z,4.07
2019-05-14T01:29:01.473Z,4.05
2019-05-14T01:31:31.489Z,3.96
2019-05-14T01:34:02.200Z,3.82
2019-05-14T01:36:32.041Z,3.77
2019-05-14T01:39:01.821Z,3.76
2019-05-14T01:41:31.703Z,3.79
2019-05-14T01:44:01.839Z,3.81
2019-05-14T01:46:31.684Z,3.81
2019-05-14T01:49:01.518Z,3.69
2019-05-14T01:51:31.605Z,3.67
2019-05-14T01:54:01.490Z,3.64
2019-05-14T01:56:31.872Z,3.58
2019-05-14T01:59:01.642Z,3.55
2019-05-14T02:01:31.543Z,3.50
2019-05-14T02:04:02.150Z,3.51
2019-05-14T02:06:31.796Z,3.51
2019-05-14T02:09:02.007Z,3.60
2019-05-14T02:11:32.068Z,3.60
2019-05-14T02:14:02.467Z,3.51
2019-05-14T02:16:31.444Z,3.39
2019-05-14T02:19:01.359Z,3.24
2019-05-14T02:21:31.711Z,3.07
2019-05-14T02:24:01.839Z,2.97
2019-05-14T02:26:31.390Z,2.81
2019-05-14T02:29:01.794Z,2.69
2019-05-14T02:31:29.877Z,2.67
2019-05-14T02:33:59.073Z,2.70
2019-05-14T02:36:30.660Z,2.66
2019-05-14T02:39:00.352Z,2.58
2019-05-14T02:41:29.929Z,2.50
2019-05-14T02:43:59.420Z,2.47
2019-05-14T02:46:29.593Z,2.41
2019-05-14T02:48:59.445Z,2.38
2019-05-14T02:51:30.084Z,2.38
2019-05-14T02:53:59.349Z,2.32
2019-05-14T02:56:29.533Z,2.27
2019-05-14T02:59:00.443Z,2.27
2019-05-14T03:01:30.150Z,2.30
2019-05-14T03:03:59.849Z,2.25
2019-05-14T03:06:29.118Z,2.21
2019-05-14T03:08:59.970Z,2.13
2019-05-14T03:11:29.784Z,2.02
2019-05-14T03:13:59.951Z,2.01
2019-05-14T03:16:32.587Z,1.99
2019-05-14T03:18:59.689Z,1.94
2019-05-14T03:21:30.480Z,1.92
2019-05-14T03:24:00.704Z,1.94
2019-05-14T03:26:29.694Z,1.98
2019-05-14T03:29:00.102Z,2.01
2019-05-14T03:31:33.036Z,2.04
2019-05-14T03:34:03.179Z,2.04
2019-05-14T03:36:34.129Z,2.00
2019-05-14T03:38:59.367Z,1.96
2019-05-14T03:41:30.689Z,1.93
2019-05-14T03:44:00.072Z,1.89
2019-05-14T03:46:44.120Z,1.84
2019-05-14T03:49:00.098Z,1.83
2019-05-14T03:51:29.878Z,1.82
2019-05-14T03:54:05.826Z,1.85
2019-05-14T03:56:29.901Z,1.93
2019-05-14T03:58:59.955Z,1.93
2019-05-14T04:01:29.729Z,1.96
2019-05-14T04:03:59.336Z,1.99
2019-05-14T04:06:30.130Z,2.01
2019-05-14T04:09:00.611Z,2.05
2019-05-14T04:11:29.476Z,2.08
2019-05-14T04:14:00.342Z,2.14
2019-05-14T04:16:29.353Z,2.17
2019-05-14T04:18:59.569Z,2.17
2019-05-14T04:21:29.750Z,2.24
2019-05-14T04:23:59.560Z,2.36
2019-05-14T04:26:30.243Z,2.42
2019-05-14T04:29:00.551Z,2.45
2019-05-14T04:31:31.322Z,2.50
2019-05-14T04:34:01.760Z,2.52
2019-05-14T04:36:30.504Z,2.63
2019-05-14T04:39:00.656Z,2.80
2019-05-14T04:41:29.931Z,2.89
2019-05-14T04:43:59.429Z,2.98
2019-05-14T04:46:30.338Z,3.08
2019-05-14T04:48:59.116Z,3.20
2019-05-14T04:51:30.279Z,3.45
2019-05-14T04:53:59.827Z,3.49
2019-05-14T04:56:30.136Z,3.54
2019-05-14T04:58:59.665Z,3.60
2019-05-14T05:01:29.478Z,3.72
2019-05-14T05:03:59.271Z,3.84
2019-05-14T05:06:29.174Z,3.90
2019-05-14T05:09:00.151Z,4.05
2019-05-14T05:11:29.119Z,4.17
2019-05-14T05:13:59.264Z,4.23
2019-05-14T05:16:29.595Z,4.36
2019-05-14T05:18:59.440Z,4.36
2019-05-14T05:21:28.365Z,4.46
2019-05-14T05:23:58.452Z,4.47
2019-05-14T05:26:28.610Z,4.54
2019-05-14T05:29:03.693Z,4.68
2019-05-14T05:31:28.995Z,4.76
2019-05-14T05:33:58.270Z,4.80
2019-05-14T05:36:29.012Z,4.80
2019-05-14T05:38:59.310Z,4.80
2019-05-14T05:41:28.324Z,4.86
2019-05-14T05:43:58.875Z,4.99
2019-05-14T05:46:28.583Z,5.10
2019-05-14T05:48:58.524Z,5.19
2019-05-14T05:51:28.900Z,5.29
2019-05-14T05:53:58.828Z,5.35
2019-05-14T05:56:28.856Z,5.45
2019-05-14T05:58:57.634Z,5.55
2019-05-14T06:01:39.477Z,5.58
2019-05-14T06:03:58.384Z,5.63
2019-05-14T06:06:28.365Z,5.77
2019-05-14T06:08:58.365Z,5.89
2019-05-14T06:11:29.029Z,6.05
2019-05-14T06:13:58.922Z,6.12
2019-05-14T06:16:28.991Z,6.15
2019-05-14T06:18:58.821Z,6.31
2019-05-14T06:21:29.306Z,6.48
2019-05-14T06:23:58.220Z,6.65
2019-05-14T06:26:28.964Z,6.82
2019-05-14T06:28:59.679Z,6.98
2019-05-14T06:31:29.120Z,7.14
2019-05-14T06:33:59.223Z,7.30
2019-05-14T06:36:29.078Z,7.40
2019-05-14T06:38:58.615Z,7.60
2019-05-14T06:41:28.376Z,7.67
2019-05-14T06:43:59.144Z,7.69
2019-05-14T06:46:28.388Z,7.78
2019-05-14T06:48:59.102Z,7.83
2019-05-14T06:51:28.840Z,7.92
2019-05-14T06:53:58.806Z,8.10
2019-05-14T06:56:28.226Z,8.21
2019-05-14T06:58:58.376Z,8.20
2019-05-14T07:01:28.983Z,8.26
2019-05-14T07:03:58.077Z,8.36
2019-05-14T07:06:29.126Z,8.29
2019-05-14T07:08:58.895Z,8.43
2019-05-14T07:11:29.275Z,8.47
2019-05-14T07:13:58.103Z,8.66
2019-05-14T07:16:28.474Z,8.84
2019-05-14T07:18:58.859Z,9.04
2019-05-14T07:21:28.984Z,9.29
2019-05-14T07:23:59.146Z,9.56
2019-05-14T07:26:29.568Z,9.70
2019-05-14T07:28:59.081Z,9.76
2019-05-14T07:31:29.070Z,10.14
2019-05-14T07:33:58.318Z,10.29
2019-05-14T07:36:29.069Z,10.38
2019-05-14T07:39:00.053Z,10.67
2019-05-14T07:41:28.481Z,11.03
2019-05-14T07:43:58.654Z,10.93
2019-05-14T07:46:28.307Z,10.43
2019-05-14T07:49:05.329Z,10.18
2019-05-14T07:51:28.259Z,9.76
2019-05-14T07:53:58.019Z,9.40
2019-05-14T07:56:29.029Z,8.82
2019-05-14T07:58:58.489Z,8.70
2019-05-14T08:01:28.178Z,8.88
2019-05-14T08:03:59.947Z,9.05
2019-05-14T08:06:28.165Z,9.43
2019-05-14T08:08:56.185Z,9.82
2019-05-14T08:11:23.727Z,10.10
2019-05-14T08:13:52.006Z,10.34
2019-05-14T08:16:20.629Z,10.59
2019-05-14T08:18:49.288Z,10.70
2019-05-14T08:21:19.395Z,10.50
2019-05-14T08:23:48.157Z,10.67
2019-05-14T08:26:19.005Z,10.76
2019-05-14T08:28:48.816Z,10.57
2019-05-14T08:31:18.731Z,10.20
2019-05-14T08:33:48.898Z,9.97
2019-05-14T08:36:18.406Z,9.67
2019-05-14T08:38:49.647Z,9.48
2019-05-14T08:41:19.527Z,9.36
2019-05-14T08:43:48.897Z,9.24
2019-05-14T08:46:19.221Z,9.21
2019-05-14T08:48:49.713Z,9.17
2019-05-14T08:51:18.653Z,9.26
2019-05-14T08:53:50.444Z,9.26
2019-05-14T08:56:19.123Z,9.18
2019-05-14T08:58:49.479Z,9.09
2019-05-14T09:01:19.518Z,9.02
2019-05-14T09:03:49.152Z,8.97
2019-05-14T09:06:18.641Z,8.88
2019-05-14T09:08:49.251Z,8.85
2019-05-14T09:11:22.974Z,8.82
2019-05-14T09:13:49.047Z,8.84
2019-05-14T09:16:19.402Z,8.89
2019-05-14T09:18:49.185Z,9.10
2019-05-14T09:21:20.202Z,9.41
2019-05-14T09:23:48.275Z,9.58
2019-05-14T09:26:18.174Z,9.86
2019-05-14T09:28:48.276Z,9.86
2019-05-14T09:31:15.963Z,9.90
2019-05-14T09:33:44.318Z,10.21
2019-05-14T09:36:19.687Z,10.73
2019-05-14T09:38:42.772Z,11.09
2019-05-14T09:41:15.658Z,11.18
2019-05-14T09:43:44.003Z,11.25
2019-05-14T09:46:11.980Z,10.88
2019-05-14T09:48:40.232Z,10.58
2019-05-14T09:51:09.329Z,10.15
2019-05-14T09:53:38.484Z,9.88
2019-05-14T09:56:09.147Z,9.84
2019-05-14T09:58:38.728Z,9.93
2019-05-14T10:01:08.488Z,9.78
2019-05-14T10:03:39.100Z,9.64
2019-05-14T10:06:09.799Z,9.58
2019-05-14T10:08:39.074Z,9.54
2019-05-14T10:11:07.488Z,9.65
2019-05-14T10:13:35.455Z,9.90
2019-05-14T10:16:03.338Z,10.34
2019-05-14T10:18:31.842Z,10.97
2019-05-14T10:21:00.451Z,11.07
2019-05-14T10:23:28.898Z,11.48
2019-05-14T10:25:58.204Z,11.49
2019-05-14T10:28:28.803Z,11.05
2019-05-14T10:30:59.441Z,10.67
2019-05-14T10:33:28.754Z,10.34
2019-05-14T10:35:58.854Z,10.21
2019-05-14T10:38:29.589Z,10.24
2019-05-14T10:40:58.563Z,10.14
2019-05-14T10:43:28.796Z,10.18
2019-05-14T10:45:58.045Z,10.23
2019-05-14T10:48:28.938Z,10.08
2019-05-14T10:51:02.841Z,9.95
2019-05-14T10:53:28.949Z,9.92
2019-05-14T10:55:58.263Z,9.89
2019-05-14T10:58:29.124Z,10.04
2019-05-14T11:00:58.836Z,10.40
2019-05-14T11:03:29.750Z,10.58
2019-05-14T11:05:58.827Z,10.59
2019-05-14T11:08:29.664Z,10.56
2019-05-14T11:11:03.653Z,10.36
2019-05-14T11:13:29.345Z,10.02
2019-05-14T11:15:59.528Z,9.91
2019-05-14T11:18:29.147Z,9.76
2019-05-14T11:21:18.132Z,9.81
2019-05-14T11:23:29.743Z,9.82
2019-05-14T11:25:58.544Z,9.89
2019-05-14T11:28:28.659Z,10.76
2019-05-14T11:30:56.937Z,11.25
2019-05-14T11:33:25.616Z,11.27
2019-05-14T11:35:54.119Z,11.32
2019-05-14T11:38:33.647Z,12.08
2019-05-14T11:40:52.716Z,12.12
2019-05-14T11:43:21.000Z,11.93
2019-05-14T11:45:49.489Z,11.69
2019-05-14T11:48:19.278Z,11.33
2019-05-14T11:50:49.111Z,10.91
2019-05-14T11:53:20.039Z,10.74
2019-05-14T11:55:50.391Z,10.73
2019-05-14T11:58:20.649Z,11.53
2019-05-14T12:00:48.985Z,12.60
2019-05-14T12:03:19.385Z,13.48
2019-05-14T12:05:49.569Z,13.48
2019-05-14T12:08:18.919Z,13.47
2019-05-14T12:10:47.634Z,13.18
2019-05-14T12:13:16.196Z,12.30
2019-05-14T12:15:44.245Z,11.92
2019-05-14T12:18:12.919Z,11.64
2019-05-14T12:20:41.272Z,11.43
2019-05-14T12:23:09.875Z,11.51
2019-05-14T12:25:38.154Z,11.86
2019-05-14T12:28:13.293Z,12.08
2019-05-14T12:30:39.535Z,12.17
2019-05-14T12:33:07.408Z,12.04
2019-05-14T12:35:35.886Z,11.92
2019-05-14T12:38:04.068Z,11.72
2019-05-14T12:40:32.007Z,11.28
2019-05-14T12:43:00.277Z,10.94
2019-05-14T12:45:29.969Z,10.45
2019-05-14T12:47:58.642Z,10.95
2019-05-14T12:50:26.912Z,11.79
2019-05-14T12:52:54.795Z,12.50
2019-05-14T12:55:23.067Z,12.99
2019-05-14T12:57:51.360Z,12.86
2019-05-14T13:00:19.705Z,12.38
2019-05-14T13:02:47.626Z,11.87
2019-05-14T13:05:18.343Z,11.85
2019-05-14T13:07:45.904Z,12.39
2019-05-14T13:10:18.609Z,12.23
2019-05-14T13:12:48.172Z,11.70
2019-05-14T13:15:16.011Z,11.21
2019-05-14T13:17:43.919Z,10.92
2019-05-14T13:20:14.196Z,11.22
2019-05-14T13:22:46.378Z,11.40
2019-05-14T13:25:12.071Z,11.48
2019-05-14T13:27:40.021Z,11.57
2019-05-14T13:30:09.228Z,11.88
2019-05-14T13:32:39.370Z,11.78
2019-05-14T13:35:13.556Z,13.13
2019-05-14T13:37:40.051Z,13.09
2019-05-14T13:40:09.373Z,12.19
2019-05-14T13:42:39.875Z,12.79
2019-05-14T13:45:10.157Z,14.57
2019-05-14T13:47:38.856Z,16.27
2019-05-14T13:50:08.517Z,17.67
2019-05-14T13:52:40.429Z,16.94
2019-05-14T13:55:09.309Z,16.94
2019-05-14T13:57:39.804Z,15.08
2019-05-14T14:00:11.932Z,13.62
2019-05-14T14:02:38.245Z,12.51
2019-05-14T14:05:08.587Z,11.81
2019-05-14T14:07:39.354Z,11.69
2019-05-14T14:10:09.008Z,11.88
2019-05-14T14:12:40.291Z,12.72
2019-05-14T14:15:09.468Z,14.33
2019-05-14T14:17:39.358Z,15.41
2019-05-14T14:20:08.577Z,15.27
2019-05-14T14:22:39.957Z,17.56
2019-05-14T14:25:09.136Z,19.30
2019-05-14T14:27:40.613Z,18.74
2019-05-14T14:30:09.476Z,17.22
2019-05-14T14:32:40.530Z,15.30
2019-05-14T14:35:08.871Z,15.74
2019-05-14T14:37:39.679Z,16.20
2019-05-14T14:40:10.133Z,15.46
2019-05-14T14:42:39.994Z,13.82
2019-05-14T14:45:08.816Z,12.71
2019-05-14T14:47:39.422Z,11.65
2019-05-14T14:50:08.372Z,11.20
2019-05-14T14:52:36.880Z,11.82
2019-05-14T14:55:06.215Z,14.79
2019-05-14T14:57:34.732Z,17.37
2019-05-14T15:00:03.012Z,18.79
2019-05-14T15:02:31.543Z,17.08
2019-05-14T15:05:00.251Z,15.27
2019-05-14T15:07:30.220Z,13.57
2019-05-14T15:09:59.614Z,14.19
2019-05-14T15:12:29.063Z,16.54
2019-05-14T15:14:59.334Z,18.49
2019-05-14T15:17:29.430Z,17.11
2019-05-14T15:19:59.450Z,15.05
2019-05-14T15:22:30.926Z,13.71
2019-05-14T15:24:58.731Z,14.22
2019-05-14T15:27:28.222Z,15.63
2019-05-14T15:29:59.178Z,17.05
2019-05-14T15:32:30.043Z,17.70
2019-05-14T15:34:59.408Z,18.31
2019-05-14T15:37:31.230Z,18.69
2019-05-14T15:39:58.483Z,17.19
2019-05-14T15:42:28.298Z,16.57
2019-05-14T15:44:59.736Z,16.13
2019-05-14T15:47:29.502Z,15.31
2019-05-14T15:49:59.471Z,15.42
2019-05-14T15:52:29.104Z,15.32
2019-05-14T15:54:58.275Z,15.05
2019-05-14T15:57:28.725Z,14.26
2019-05-14T16:00:00.870Z,14.02
2019-05-14T16:02:29.614Z,13.85
2019-05-14T16:04:59.150Z,13.63
2019-05-14T16:07:29.306Z,13.36
2019-05-14T16:10:00.664Z,13.33
2019-05-14T16:12:32.149Z,12.72
2019-05-14T16:14:58.625Z,11.81
2019-05-14T16:17:29.807Z,11.40
2019-05-14T16:19:56.996Z,11.33
2019-05-14T16:22:26.057Z,11.53
2019-05-14T16:24:57.172Z,11.71
2019-05-14T16:27:24.708Z,11.91
2019-05-14T16:29:53.530Z,12.13
2019-05-14T16:32:22.089Z,12.32
2019-05-14T16:34:50.905Z,12.27
2019-05-14T16:37:19.471Z,12.25
2019-05-14T16:39:48.800Z,12.06
2019-05-14T16:42:20.540Z,12.17
2019-05-14T16:44:47.206Z,12.49
2019-05-14T16:47:15.626Z,12.67
2019-05-14T16:49:43.453Z,12.57
2019-05-14T16:52:12.177Z,12.43
2019-05-14T16:54:40.973Z,12.36
2019-05-14T16:57:10.941Z,11.95
2019-05-14T16:59:39.606Z,11.11
2019-05-14T17:02:09.154Z,10.58
2019-05-14T17:04:38.749Z,10.12
2019-05-14T17:07:09.591Z,9.77
2019-05-14T17:09:38.474Z,9.90
2019-05-14T17:12:08.534Z,10.26
2019-05-14T17:14:38.526Z,10.60
2019-05-14T17:17:09.128Z,10.87
2019-05-14T17:19:38.585Z,10.91
2019-05-14T17:22:23.363Z,10.72
2019-05-14T17:24:39.809Z,10.15
2019-05-14T17:27:08.843Z,9.72
2019-05-14T17:29:38.927Z,9.37
2019-05-14T17:32:07.073Z,9.25
2019-05-14T17:34:35.473Z,9.16
2019-05-14T17:37:03.340Z,9.23
2019-05-14T17:39:31.875Z,9.22
2019-05-14T17:42:00.123Z,9.36
2019-05-14T17:44:28.141Z,9.39
2019-05-14T17:46:58.706Z,9.40
2019-05-14T17:49:28.381Z,9.35
2019-05-14T17:51:58.119Z,9.28
2019-05-14T17:54:28.417Z,9.22
2019-05-14T17:56:59.050Z,9.09
2019-05-14T17:59:29.529Z,8.86
2019-05-14T18:01:58.191Z,8.75
2019-05-14T18:04:28.368Z,8.62
2019-05-14T18:06:59.004Z,8.53
2019-05-14T18:09:29.104Z,8.48
2019-05-14T18:11:58.602Z,8.37
2019-05-14T18:14:28.377Z,8.32
2019-05-14T18:16:58.472Z,8.30
2019-05-14T18:19:28.929Z,8.25
2019-05-14T18:21:59.230Z,8.16
2019-05-14T18:24:28.630Z,7.96
2019-05-14T18:26:56.908Z,7.92
2019-05-14T18:29:24.971Z,7.77
2019-05-14T18:31:54.533Z,7.67
2019-05-14T18:34:23.184Z,7.57
2019-05-14T18:36:51.364Z,7.41
2019-05-14T18:39:20.952Z,7.32
2019-05-14T18:41:49.996Z,7.22
2019-05-14T18:44:18.965Z,7.20
2019-05-14T18:46:48.628Z,7.16
2019-05-14T18:49:19.580Z,7.05
2019-05-14T18:51:50.114Z,6.96
2019-05-14T18:54:17.729Z,7.01
2019-05-14T18:56:48.734Z,6.97
2019-05-14T18:59:20.960Z,6.92
2019-05-14T19:01:48.899Z,6.82
2019-05-14T19:04:18.515Z,6.79
2019-05-14T19:06:48.249Z,6.74
2019-05-14T19:09:18.555Z,6.70
2019-05-14T19:11:48.293Z,6.68
2019-05-14T19:14:18.769Z,6.72
2019-05-14T19:16:48.747Z,6.63
2019-05-14T19:19:16.632Z,6.58
2019-05-14T19:21:44.925Z,6.48
2019-05-14T19:24:13.594Z,6.51
2019-05-14T19:26:42.259Z,6.53
2019-05-14T19:29:10.523Z,6.49
2019-05-14T19:31:38.816Z,6.44
2019-05-14T19:34:08.457Z,6.38
2019-05-14T19:36:37.283Z,6.28
2019-05-14T19:39:07.847Z,6.21
2019-05-14T19:41:38.777Z,6.09
2019-05-14T19:44:08.815Z,6.01
2019-05-14T19:46:38.652Z,5.93
2019-05-14T19:49:08.146Z,5.91
2019-05-14T19:51:38.567Z,5.90
2019-05-14T19:54:08.167Z,5.93
2019-05-14T19:56:51.976Z,5.88
2019-05-14T19:59:09.096Z,5.87
2019-05-14T20:01:38.523Z,5.78
2019-05-14T20:04:09.519Z,5.72
2019-05-14T20:06:38.777Z,5.66
2019-05-14T20:09:09.450Z,5.65
2019-05-14T20:11:39.702Z,5.67
2019-05-14T20:14:08.651Z,5.65
2019-05-14T20:16:39.244Z,5.72
2019-05-14T20:19:08.820Z,5.75
2019-05-14T20:21:39.006Z,5.79
2019-05-14T20:24:07.731Z,5.78
2019-05-14T20:26:38.743Z,5.75
2019-05-14T20:29:08.742Z,5.67
2019-05-14T20:31:38.869Z,5.64
2019-05-14T20:34:08.431Z,5.62
2019-05-14T20:36:38.961Z,5.62
2019-05-14T20:39:08.706Z,5.63
2019-05-14T20:41:38.467Z,5.54
2019-05-14T20:44:07.374Z,5.61
2019-05-14T20:46:38.067Z,5.55
2019-05-14T20:49:08.608Z,5.47
2019-05-14T20:51:38.697Z,5.50
2019-05-14T20:54:08.875Z,5.56
2019-05-14T20:56:39.994Z,5.56
2019-05-14T20:59:08.414Z,5.54
2019-05-14T21:01:38.681Z,5.63
2019-05-14T21:04:08.809Z,5.63
2019-05-14T21:06:39.014Z,5.67
2019-05-14T21:09:07.251Z,5.63
2019-05-14T21:11:35.327Z,5.48
2019-05-14T21:14:03.601Z,5.38
2019-05-14T21:16:31.154Z,5.32
2019-05-14T21:18:59.620Z,5.18
2019-05-14T21:21:28.415Z,5.15
2019-05-14T21:23:58.630Z,5.10
2019-05-14T21:26:29.193Z,4.97
2019-05-14T21:28:58.350Z,4.89
2019-05-14T21:31:28.419Z,4.95
2019-05-14T21:33:58.668Z,4.95
2019-05-14T21:36:28.370Z,4.93
2019-05-14T21:38:58.509Z,4.86
2019-05-14T21:41:28.835Z,4.74
2019-05-14T21:43:58.363Z,4.69
2019-05-14T21:46:28.777Z,4.74
2019-05-14T21:48:58.569Z,4.70
2019-05-14T21:51:28.365Z,4.65
2019-05-14T21:53:58.876Z,4.61
2019-05-14T21:56:29.193Z,4.61
2019-05-14T21:59:01.281Z,4.57
2019-05-14T22:01:30.931Z,4.57
2019-05-14T22:04:00.562Z,4.47
2019-05-14T22:06:29.158Z,4.48
2019-05-14T22:08:59.105Z,4.52
2019-05-14T22:11:29.781Z,4.56
2019-05-14T22:13:58.437Z,4.56
2019-05-14T22:16:28.116Z,4.55
2019-05-14T22:18:59.239Z,4.49
2019-05-14T22:21:28.934Z,4.48
2019-05-14T22:23:59.048Z,4.39
2019-05-14T22:26:28.276Z,4.37
2019-05-14T22:28:58.513Z,4.36
2019-05-14T22:31:26.086Z,4.33
2019-05-14T22:33:59.556Z,4.32
2019-05-14T22:36:29.355Z,4.26
2019-05-14T22:38:57.973Z,4.15
2019-05-14T22:41:25.989Z,4.10
2019-05-14T22:43:56.812Z,4.20
2019-05-14T22:46:24.203Z,4.15
2019-05-14T22:48:52.060Z,4.02
2019-05-14T22:51:20.632Z,3.93
2019-05-14T22:53:49.423Z,3.80
2019-05-14T22:56:18.226Z,3.67
2019-05-14T22:58:48.671Z,3.64
2019-05-14T23:01:18.429Z,3.58
2019-05-14T23:03:48.943Z,3.63
2019-05-14T23:06:18.827Z,3.62
2019-05-14T23:08:48.652Z,3.68
2019-05-14T23:11:19.506Z,3.70
2019-05-14T23:13:48.821Z,3.71
2019-05-14T23:16:30.970Z,3.77
2019-05-14T23:18:48.768Z,3.86
2019-05-14T23:21:16.846Z,3.85
2019-05-14T23:23:45.192Z,3.71
2019-05-14T23:26:14.073Z,3.62
2019-05-14T23:28:45.952Z,3.59
2019-05-14T23:31:12.789Z,3.64
2019-05-14T23:33:41.073Z,3.68
2019-05-14T23:36:09.363Z,3.66
2019-05-14T23:38:38.972Z,3.64
2019-05-14T23:41:08.648Z,3.73
2019-05-14T23:43:39.118Z,3.69
2019-05-14T23:46:09.381Z,3.61
2019-05-14T23:48:39.131Z,3.58
2019-05-14T23:51:08.107Z,3.63
2019-05-14T23:53:39.212Z,3.53
2019-05-14T23:56:08.596Z,3.55
2019-05-14T23:58:37.153Z,3.58
